Time;durP1;ratioP1;P1;durP2;ratioP2;P2;SDS_P1;SDS_P2;PMS_P1;PMS_P2;Temp;Humidity;BMP_temperature;BMP_pressure;BME280_temperature;BME280_humidity;BME280_pressure;Samples;Min_cycle;Max_cycle;Signal;HPM_P1;HPM_P2
2022/06/15 00:02:12;;;;;;;;;10.25;9.00;;;;;24.23;35.13;101113.66;4958812;28;45643;-55
2022/06/15 00:04:37;;;;;;;;;8.75;7.50;;;;;24.19;35.47;101102.44;4958837;28;45347;-52
2022/06/15 00:07:03;;;;;;;;;11.25;8.25;;;;;24.21;35.10;101116.44;4958061;28;45358;-53
2022/06/15 00:09:28;;;;;;;;;9.25;8.50;;;;;24.19;35.07;101106.88;4959198;28;45557;-53
2022/06/15 00:11:54;;;;;;;;;9.00;9.00;;;;;24.18;35.29;101103.38;4958661;28;45559;-56
2022/06/15 00:14:25;;;;;;;;;7.25;6.50;;;;;24.19;35.72;101099.78;4958780;28;45518;-53
2022/06/15 00:16:51;;;;;;;;;9.25;7.75;;;;;24.19;35.23;101104.25;4958854;28;45261;-55
2022/06/15 00:19:17;;;;;;;;;7.75;7.00;;;;;24.18;35.08;101103.38;4958992;28;45524;-52
2022/06/15 00:21:43;;;;;;;;;8.50;7.00;;;;;24.18;35.56;101105.19;4958578;28;46265;-53
2022/06/15 00:24:08;;;;;;;;;8.00;7.50;;;;;24.18;35.64;101100.72;4958584;28;45474;-54
2022/06/15 00:26:34;;;;;;;;;6.75;6.75;;;;;24.17;35.41;101104.31;4957634;28;45338;-53
2022/06/15 00:29:00;;;;;;;;;7.25;7.25;;;;;24.17;35.81;101104.31;4958949;28;45622;-55
2022/06/15 00:31:25;;;;;;;;;8.25;8.25;;;;;24.17;35.53;101100.84;4957802;28;45381;-57
2022/06/15 00:33:51;;;;;;;;;6.25;6.25;;;;;24.17;35.30;101106.13;4957938;28;45325;-56
2022/06/15 00:36:19;;;;;;;;;4.00;4.00;;;;;24.17;35.30;101109.63;4958400;28;45338;-54
2022/06/15 00:38:47;;;;;;;;;7.00;7.00;;;;;24.17;35.60;101100.84;4958773;28;45684;-57
2022/06/15 00:41:23;;;;;;;;;8.00;8.00;;;;;24.17;35.56;101106.13;4958309;28;46335;-57
2022/06/15 00:43:58;;;;;;;;;6.75;6.75;;;;;24.15;35.80;101108.88;4958342;28;45994;-55
2022/06/15 00:46:32;;;;;;;;;7.25;7.25;;;;;24.16;35.28;101113.22;4958414;28;45373;-55
2022/06/15 00:49:08;;;;;;;;;8.00;8.00;;;;;24.15;35.43;101110.69;4958432;28;45226;-57
2022/06/15 00:51:34;;;;;;;;;8.25;7.75;;;;;24.16;35.66;101115.03;4958417;28;45489;-55
2022/06/15 00:54:00;;;;;;;;;8.00;6.00;;;;;24.14;35.53;101112.50;4958167;28;45333;-54
2022/06/15 00:56:28;;;;;;;;;8.50;7.50;;;;;24.14;35.70;101114.28;4958249;28;45479;-56
2022/06/15 00:58:59;;;;;;;;;8.00;7.00;;;;;24.15;35.62;101113.34;4958434;28;45492;-55
2022/06/15 01:01:25;;;;;;;;;8.50;8.50;;;;;24.15;35.65;101114.16;4958092;28;46283;-54
2022/06/15 01:03:53;;;;;;;;;11.25;7.25;;;;;24.14;35.56;101109.84;4957932;28;45353;-55
2022/06/15 01:06:33;;;;;;;;;9.00;8.75;;;;;24.15;35.49;101113.34;4958053;28;45428;-56
2022/06/15 01:09:21;;;;;;;;;7.00;7.00;;;;;24.15;35.65;101110.69;4958170;28;45404;-55
2022/06/15 01:12:05;;;;;;;;;7.50;7.50;;;;;24.14;35.49;101114.28;4957587;28;45611;-56
2022/06/15 01:14:37;;;;;;;;;7.75;7.00;;;;;24.13;35.41;101110.78;4957805;28;45406;-55
2022/06/15 01:17:18;;;;;;;;;6.00;6.00;;;;;24.13;35.69;101109.94;4957208;28;45397;-54
2022/06/15 01:20:28;;;;;;;;;9.25;7.25;;;;;24.14;35.53;101119.56;4958076;28;45552;-52
2022/06/15 01:23:06;;;;;;;;;7.50;6.75;;;;;24.13;35.75;101110.78;4956224;28;46192;-48
2022/06/15 01:25:57;;;;;;;;;7.75;7.75;;;;;24.12;35.49;101111.75;4957740;28;45793;-53
2022/06/15 01:28:42;;;;;;;;;8.75;8.00;;;;;24.12;35.63;101103.81;4957790;28;45385;-54
2022/06/15 01:31:35;;;;;;;;;7.00;7.00;;;;;24.12;35.84;101105.59;4958318;28;45219;-53
2022/06/15 01:34:24;;;;;;;;;7.00;7.00;;;;;24.12;35.95;101113.53;4957446;28;47361;-53
2022/06/15 01:37:02;;;;;;;;;8.75;6.75;;;;;24.12;35.52;101102.94;4957689;28;45471;-57
2022/06/15 01:39:43;;;;;;;;;6.75;6.75;;;;;24.12;36.07;101110.88;4957735;28;45370;-57
2022/06/15 01:42:40;;;;;;;;;7.00;6.00;;;;;24.12;35.75;101105.59;4958435;28;45708;-56
2022/06/15 01:45:13;;;;;;;;;7.25;7.25;;;;;24.09;35.86;101110.13;4957585;28;47473;-56
2022/06/15 01:47:43;;;;;;;;;8.00;7.25;;;;;24.08;35.52;101100.50;4957767;28;45381;-49
2022/06/15 01:50:21;;;;;;;;;6.75;6.75;;;;;24.09;35.92;101099.53;4957637;28;45326;-55
2022/06/15 01:53:00;;;;;;;;;8.25;6.75;;;;;24.09;35.99;101101.34;4957514;28;45384;-52
2022/06/15 01:55:29;;;;;;;;;7.00;7.00;;;;;24.09;35.90;101088.94;4957227;28;47158;-55
2022/06/15 01:58:00;;;;;;;;;5.75;5.75;;;;;24.08;35.72;101086.41;4957273;28;45396;-55
2022/06/15 02:00:26;;;;;;;;;8.00;6.00;;;;;24.08;35.94;101081.97;4957411;28;45328;-53
2022/06/15 02:03:13;;;;;;;;;7.00;7.00;;;;;24.08;36.44;101087.28;4957518;28;45235;-55
2022/06/15 02:06:02;;;;;;;;;7.00;7.00;;;;;24.04;36.37;101082.25;4957473;28;45698;-50
2022/06/15 02:08:39;;;;;;;;;6.75;6.75;;;;;24.00;36.13;101081.63;4939799;28;45278;-55
2022/06/15 02:11:10;;;;;;;;;8.00;6.75;;;;;23.97;36.24;101083.63;4957368;28;45355;-55
2022/06/15 02:13:50;;;;;;;;;8.25;5.75;;;;;23.92;36.75;101075.97;4957760;28;45172;-56
2022/06/15 02:16:31;;;;;;;;;7.00;6.25;;;;;23.88;37.00;101080.63;4957124;28;46715;-54
2022/06/15 02:19:00;;;;;;;;;8.25;6.00;;;;;23.85;36.87;101079.97;4957092;28;45230;-55
2022/06/15 02:21:26;;;;;;;;;6.00;6.00;;;;;23.82;36.82;101074.88;4957107;28;45396;-55
2022/06/15 02:23:56;;;;;;;;;6.50;6.50;;;;;23.81;36.89;101073.16;4956027;28;45414;-55
2022/06/15 02:26:26;;;;;;;;;6.75;6.75;;;;;23.76;37.13;101071.66;4956935;28;46278;-55
2022/06/15 02:28:55;;;;;;;;;7.00;5.50;;;;;23.76;37.52;101071.66;4956747;28;45993;-56
2022/06/15 02:31:20;;;;;;;;;5.50;5.50;;;;;23.74;37.02;101067.44;4957102;28;45286;-56
2022/06/15 02:33:51;;;;;;;;;8.75;6.00;;;;;23.72;37.40;101070.19;4957076;28;45330;-56
2022/06/15 02:36:16;;;;;;;;;5.00;5.00;;;;;23.71;37.34;101071.13;4956767;28;46202;-57
2022/06/15 02:38:44;;;;;;;;;6.50;6.50;;;;;23.69;37.15;101070.38;4957082;28;45452;-55
2022/06/15 02:41:10;;;;;;;;;6.75;5.50;;;;;23.67;37.10;101066.16;4957246;28;45527;-57
2022/06/15 02:43:39;;;;;;;;;7.00;6.00;;;;;23.65;37.62;101068.88;4957047;28;45211;-57
2022/06/15 02:46:07;;;;;;;;;5.75;5.75;;;;;23.62;37.63;101075.22;4956679;28;46541;-53
2022/06/15 02:48:34;;;;;;;;;6.00;6.00;;;;;23.59;37.95;101070.13;4955462;28;45683;-55
2022/06/15 02:51:12;;;;;;;;;6.75;5.25;;;;;23.59;38.01;101069.28;4956697;28;45183;-54
2022/06/15 02:53:40;;;;;;;;;6.50;6.50;;;;;23.57;37.65;101068.53;4957128;28;45512;-55
2022/06/15 02:56:07;;;;;;;;;8.00;6.50;;;;;23.55;37.75;101066.00;4958289;28;46268;-54
2022/06/15 02:58:40;;;;;;;;;7.00;6.00;;;;;23.54;38.23;101066.06;4960050;28;45261;-54
2022/06/15 03:01:05;;;;;;;;;6.00;6.00;;;;;23.52;38.12;101065.34;4960029;28;45364;-56
2022/06/15 03:03:33;;;;;;;;;5.00;5.00;;;;;23.48;38.38;101064.69;4960095;28;45317;-56
2022/06/15 03:05:58;;;;;;;;;5.50;5.50;;;;;23.47;38.10;101068.28;4942567;28;45460;-55
2022/06/15 03:08:23;;;;;;;;;8.50;7.00;;;;;23.44;38.49;101069.31;4960033;28;45875;-56
2022/06/15 03:10:50;;;;;;;;;5.50;5.00;;;;;23.44;38.15;101071.13;4959617;28;45415;-55
2022/06/15 03:13:16;;;;;;;;;6.00;5.00;;;;;23.42;38.64;101071.22;4959855;28;45329;-56
2022/06/15 03:15:41;;;;;;;;;5.75;5.00;;;;;23.42;38.25;101067.72;4959951;28;46317;-56
2022/06/15 03:18:07;;;;;;;;;8.00;7.00;;;;;23.39;38.44;101074.06;4959757;28;45247;-56
2022/06/15 03:20:32;;;;;;;;;8.25;6.00;;;;;23.38;38.58;101077.66;4959588;28;45462;-57
2022/06/15 03:22:58;;;;;;;;;7.00;5.50;;;;;23.37;38.51;101080.41;4959846;28;45550;-56
2022/06/15 03:25:24;;;;;;;;;6.75;5.25;;;;;23.36;38.99;101086.63;4959420;28;46480;-55
2022/06/15 03:27:50;;;;;;;;;6.75;5.75;;;;;23.34;38.95;101080.59;4959314;28;45341;-56
2022/06/15 03:30:16;;;;;;;;;7.00;7.00;;;;;23.33;38.94;101077.09;4959649;28;45254;-53
2022/06/15 03:32:42;;;;;;;;;5.00;5.00;;;;;23.33;39.33;101084.19;4960073;28;45444;-57
2022/06/15 03:35:09;;;;;;;;;7.25;6.00;;;;;23.29;38.99;101079.09;4959260;28;45898;-57
2022/06/15 03:37:38;;;;;;;;;6.00;6.00;;;;;23.29;38.89;101078.25;4959404;28;45821;-57
2022/06/15 03:40:06;;;;;;;;;8.00;6.25;;;;;23.29;38.88;101071.16;4959462;28;45220;-56
2022/06/15 03:42:31;;;;;;;;;8.50;7.50;;;;;23.30;39.26;101079.94;4959465;28;45294;-57
2022/06/15 03:44:56;;;;;;;;;6.00;6.00;;;;;23.30;38.93;101079.94;4957859;28;47556;-57
2022/06/15 03:47:23;;;;;;;;;6.00;5.25;;;;;23.29;39.09;101078.25;4959132;28;45314;-58
2022/06/15 03:49:50;;;;;;;;;7.00;7.00;;;;;23.30;39.13;101079.94;4959128;28;45325;-57
2022/06/15 03:52:18;;;;;;;;;7.50;7.25;;;;;23.28;39.40;101073.91;4958502;28;45464;-57
2022/06/15 03:54:44;;;;;;;;;7.25;6.00;;;;;23.29;39.13;101072.97;4959329;28;45577;-56
2022/06/15 03:57:12;;;;;;;;;7.50;7.00;;;;;23.26;39.14;101073.13;4959012;28;45373;-56
2022/06/15 03:59:38;;;;;;;;;5.25;5.25;;;;;23.28;39.05;101074.72;4959183;28;45335;-56
2022/06/15 04:02:04;;;;;;;;;7.75;7.75;;;;;23.28;39.33;101077.38;4959419;28;45556;-56
2022/06/15 04:04:29;;;;;;;;;6.25;6.00;;;;;23.28;39.06;101076.53;4958789;28;46776;-56
2022/06/15 04:06:55;;;;;;;;;6.50;6.00;;;;;23.27;39.20;101075.69;4958697;28;45363;-56
2022/06/15 04:09:21;;;;;;;;;6.25;6.00;;;;;23.26;39.55;101067.84;4958968;28;45325;-55
2022/06/15 04:11:59;;;;;;;;;7.50;7.00;;;;;23.26;39.28;101073.13;4959436;28;45218;-55
2022/06/15 04:14:26;;;;;;;;;7.75;7.00;;;;;23.26;39.31;101076.63;4958805;28;46531;-56
2022/06/15 04:16:54;;;;;;;;;7.50;7.50;;;;;23.26;39.54;101076.63;4958760;28;45942;-54
2022/06/15 04:19:25;;;;;;;;;7.25;6.75;;;;;23.24;39.29;101077.66;4958925;28;45473;-56
2022/06/15 04:21:51;;;;;;;;;7.00;6.50;;;;;23.21;39.60;101069.94;4959076;28;45314;-56
2022/06/15 04:24:18;;;;;;;;;7.75;6.75;;;;;23.21;39.68;101072.56;4958817;28;45614;-54
2022/06/15 04:26:45;;;;;;;;;8.00;7.00;;;;;23.21;39.45;101072.56;4959065;28;45929;-56
2022/06/15 04:29:11;;;;;;;;;7.00;7.00;;;;;23.21;39.82;101072.56;4958454;28;45437;-55
2022/06/15 04:31:38;;;;;;;;;6.50;6.50;;;;;23.19;39.52;101072.69;4958975;28;45538;-55
2022/06/15 04:34:04;;;;;;;;;7.00;7.00;;;;;23.20;39.41;101078.84;4958493;28;46680;-56
2022/06/15 04:36:30;;;;;;;;;9.50;8.25;;;;;23.19;39.50;101085.91;4958404;28;45460;-54
2022/06/15 04:38:56;;;;;;;;;4.00;4.00;;;;;23.18;39.75;101078.88;4958557;28;45469;-55
2022/06/15 04:41:21;;;;;;;;;6.50;6.50;;;;;23.17;39.70;101088.63;4958600;28;45584;-56
2022/06/15 04:43:47;;;;;;;;;8.50;6.00;;;;;23.16;39.57;101083.41;4958726;28;46446;-55
2022/06/15 04:46:12;;;;;;;;;7.50;7.50;;;;;23.15;39.85;101079.09;4958376;28;45488;-55
2022/06/15 04:48:37;;;;;;;;;8.25;7.00;;;;;23.15;39.64;101077.28;4958423;28;45336;-55
2022/06/15 04:51:18;;;;;;;;;9.00;8.25;;;;;23.14;39.58;101094.09;4958348;28;45560;-55
2022/06/15 04:53:44;;;;;;;;;7.25;7.25;;;;;23.15;39.77;101095.78;4957883;28;46298;-54
2022/06/15 04:56:09;;;;;;;;;7.00;6.25;;;;;23.11;39.78;101088.97;4958124;28;45733;-54
2022/06/15 04:58:34;;;;;;;;;9.50;7.75;;;;;23.15;40.09;101098.44;4958260;28;45321;-56
2022/06/15 05:01:00;;;;;;;;;10.50;7.75;;;;;23.16;40.15;101099.25;4958331;28;45616;-55
2022/06/15 05:03:26;;;;;;;;;7.25;7.25;;;;;23.15;39.90;101103.72;4957962;28;46313;-56
2022/06/15 05:05:58;;;;;;;;;8.25;7.25;;;;;23.16;40.29;101099.25;4957974;28;45446;-56
2022/06/15 05:08:23;;;;;;;;;9.00;8.00;;;;;23.17;40.59;101096.56;4958264;28;45231;-55
2022/06/15 05:10:49;;;;;;;;;6.75;6.75;;;;;23.17;40.23;101096.56;4957157;28;45643;-55
2022/06/15 05:13:14;;;;;;;;;9.75;8.00;;;;;23.19;40.33;101099.13;4957957;28;46056;-54
2022/06/15 05:15:39;;;;;;;;;14.25;11.25;;;;;23.20;40.50;101098.16;4957772;28;45416;-56
2022/06/15 05:18:07;;;;;;;;;11.00;11.00;;;;;23.19;40.36;101090.31;4957194;28;45310;-54
2022/06/15 05:20:36;;;;;;;;;13.00;11.00;;;;;23.22;40.28;101087.50;4956625;28;45349;-56
2022/06/15 05:23:02;;;;;;;;;12.00;11.25;;;;;23.24;40.34;101093.53;4957663;28;46871;-56
2022/06/15 05:25:28;;;;;;;;;11.00;9.00;;;;;23.23;40.49;101091.84;4957610;28;45298;-56
2022/06/15 05:27:53;;;;;;;;;9.00;7.00;;;;;23.25;40.46;101097.88;4957715;28;45470;-56
2022/06/15 05:30:19;;;;;;;;;7.25;7.00;;;;;23.25;40.46;101095.25;4958138;28;45338;-55
2022/06/15 05:32:44;;;;;;;;;9.75;8.75;;;;;23.28;40.35;101097.69;4957485;28;45352;-55
2022/06/15 05:35:10;;;;;;;;;9.75;9.50;;;;;23.28;40.05;101092.41;4957594;28;45368;-52
2022/06/15 05:37:36;;;;;;;;;11.75;10.00;;;;;23.26;40.12;101092.47;4957756;28;45353;-51
2022/06/15 05:40:01;;;;;;;;;8.75;8.25;;;;;23.25;40.45;101090.81;4957895;28;45498;-54
2022/06/15 05:42:28;;;;;;;;;9.25;8.00;;;;;23.25;40.35;101092.59;4957422;28;45340;-55
2022/06/15 05:44:55;;;;;;;;;9.00;9.00;;;;;23.26;40.38;101100.41;4957420;28;45341;-53
2022/06/15 05:47:20;;;;;;;;;11.25;9.00;;;;;23.25;40.03;101098.75;4956601;28;45338;-57
2022/06/15 05:49:46;;;;;;;;;9.00;8.00;;;;;23.26;40.10;101099.59;4957546;28;45163;-51
2022/06/15 05:52:11;;;;;;;;;10.25;8.50;;;;;23.25;39.93;101093.47;4957343;28;45346;-56
2022/06/15 05:54:37;;;;;;;;;8.00;8.00;;;;;23.25;40.01;101095.25;4957264;28;45311;-56
2022/06/15 05:57:15;;;;;;;;;7.50;7.50;;;;;23.24;40.29;101094.41;4957480;28;45386;-56
2022/06/15 05:59:41;;;;;;;;;9.00;9.00;;;;;23.23;40.11;101099.78;4957618;28;45305;-55
2022/06/15 06:02:09;;;;;;;;;9.75;8.75;;;;;23.23;40.19;101102.41;4956845;28;45495;-56
2022/06/15 06:04:35;;;;;;;;;11.00;9.00;;;;;23.24;40.18;101101.47;4957165;28;45812;-52
2022/06/15 06:07:00;;;;;;;;;12.75;9.75;;;;;23.23;39.95;101105.94;4957277;28;45374;-56
2022/06/15 06:09:27;;;;;;;;;11.00;11.00;;;;;23.24;39.99;101106.75;4957101;28;45165;-55
2022/06/15 06:11:53;;;;;;;;;9.75;9.50;;;;;23.25;39.97;101108.47;4957206;28;46731;-56
2022/06/15 06:14:18;;;;;;;;;11.00;10.00;;;;;23.26;40.41;101110.16;4956919;28;45431;-56
2022/06/15 06:16:43;;;;;;;;;9.75;8.75;;;;;23.27;40.31;101101.28;4957366;28;45667;-56
2022/06/15 06:19:09;;;;;;;;;10.75;9.25;;;;;23.28;40.60;101105.63;4957131;28;45678;-55
2022/06/15 06:21:34;;;;;;;;;10.25;10.00;;;;;23.28;40.03;101103.00;4956894;28;46577;-54
2022/06/15 06:23:59;;;;;;;;;11.00;9.75;;;;;23.26;39.80;101094.28;4956888;28;45382;-52
2022/06/15 06:26:28;;;;;;;;;11.50;10.75;;;;;23.31;40.42;101097.50;4957093;28;45270;-56
2022/06/15 06:28:54;;;;;;;;;9.50;9.00;;;;;23.29;40.25;101089.66;4957369;28;45916;-57
2022/06/15 06:31:20;;;;;;;;;10.75;10.50;;;;;23.30;40.03;101091.34;4959158;28;46550;-55
2022/06/15 06:33:46;;;;;;;;;13.00;9.00;;;;;23.33;40.36;101092.13;4960312;28;45320;-54
2022/06/15 06:36:24;;;;;;;;;10.00;9.00;;;;;23.33;40.27;101094.75;4960298;28;45365;-56
2022/06/15 06:38:49;;;;;;;;;11.50;10.50;;;;;23.33;39.95;101092.94;4960670;28;45305;-54
2022/06/15 06:41:20;;;;;;;;;10.50;10.50;;;;;23.35;39.87;101106.09;4960088;28;45355;-55
2022/06/15 06:43:45;;;;;;;;;9.50;9.25;;;;;23.36;39.98;101106.00;4960217;28;45986;-56
2022/06/15 06:46:11;;;;;;;;;7.75;5.75;;;;;23.36;39.94;101100.69;4960186;28;45239;-55
2022/06/15 06:48:36;;;;;;;;;9.00;8.00;;;;;23.37;39.72;101099.75;4960462;28;45308;-55
2022/06/15 06:51:02;;;;;;;;;15.25;13.00;;;;;23.38;39.93;101104.09;4958585;28;46491;-55
2022/06/15 06:53:27;;;;;;;;;7.00;7.00;;;;;23.38;40.13;101108.53;4960024;28;45469;-56
2022/06/15 06:55:52;;;;;;;;;9.00;9.00;;;;;23.41;39.70;101105.69;4960455;28;45404;-55
2022/06/15 06:58:17;;;;;;;;;10.75;9.00;;;;;23.43;39.85;101114.38;4960213;28;45208;-56
2022/06/15 07:00:43;;;;;;;;;8.25;8.25;;;;;23.45;39.83;101112.50;4959819;28;46480;-57
2022/06/15 07:03:08;;;;;;;;;9.50;8.25;;;;;23.45;39.82;101113.34;4959888;28;45449;-57
2022/06/15 07:05:35;;;;;;;;;10.75;9.25;;;;;23.44;39.72;101111.63;4959969;28;45402;-57
2022/06/15 07:08:01;;;;;;;;;8.00;8.00;;;;;23.47;40.22;101114.09;4960191;28;45416;-56
2022/06/15 07:10:26;;;;;;;;;8.75;7.75;;;;;23.50;39.69;101112.22;4959819;28;47069;-57
2022/06/15 07:12:53;;;;;;;;;9.50;9.50;;;;;23.52;39.73;101107.66;4959900;28;45404;-57
2022/06/15 07:15:19;;;;;;;;;12.25;12.00;;;;;23.53;39.54;101107.56;4959743;28;45368;-55
2022/06/15 07:17:44;;;;;;;;;10.50;9.25;;;;;23.56;39.83;101109.16;4959817;28;45571;-56
2022/06/15 07:20:11;;;;;;;;;9.50;8.25;;;;;23.58;39.85;101101.97;4958339;28;47210;-56
2022/06/15 07:22:36;;;;;;;;;10.25;9.00;;;;;23.59;39.62;101114.25;4959550;28;45879;-56
2022/06/15 07:25:04;;;;;;;;;11.50;9.00;;;;;23.61;39.63;101115.00;4958679;28;45307;-55
2022/06/15 07:27:36;;;;;;;;;10.00;9.00;;;;;23.65;39.42;101113.84;4956777;28;45654;-54
2022/06/15 07:30:05;;;;;;;;;10.75;8.75;;;;;23.70;39.84;101114.41;4958185;28;45531;-54
2022/06/15 07:32:30;;;;;;;;;13.25;10.25;;;;;23.70;39.53;101119.72;4959085;28;45889;-56
2022/06/15 07:34:56;;;;;;;;;10.50;9.75;;;;;23.76;39.41;101121.94;4959678;28;45413;-55
2022/06/15 07:37:21;;;;;;;;;12.50;9.25;;;;;23.77;39.26;101118.34;4959195;28;45770;-53
2022/06/15 07:39:46;;;;;;;;;12.50;10.00;;;;;23.78;39.68;101121.88;4957601;28;45682;-56
2022/06/15 07:42:11;;;;;;;;;7.25;7.25;;;;;23.80;38.84;101121.75;4958467;28;45440;-54
2022/06/15 07:44:38;;;;;;;;;11.00;8.75;;;;;23.81;39.53;101113.72;4958783;28;45529;-55
2022/06/15 07:49:57;;;;;;;;;9.50;9.25;;;;;23.85;39.27;101128.44;4958809;28;45337;-56
2022/06/15 07:52:28;;;;;;;;;9.25;7.25;;;;;23.86;38.96;101121.38;4959025;28;45870;-56
2022/06/15 07:54:54;;;;;;;;;11.00;9.50;;;;;23.90;39.68;101125.50;4959324;28;45291;-56
2022/06/15 07:57:20;;;;;;;;;10.50;10.50;;;;;23.94;39.51;101122.53;4959252;28;45542;-57
2022/06/15 07:59:45;;;;;;;;;8.75;8.00;;;;;23.99;39.45;101124.91;4958713;28;45462;-56
2022/06/15 08:02:11;;;;;;;;;8.00;8.00;;;;;24.03;39.23;101120.31;4958995;28;45390;-57
2022/06/15 08:04:36;;;;;;;;;7.25;7.00;;;;;24.05;39.41;101118.38;4959053;28;45373;-55
2022/06/15 08:07:04;;;;;;;;;9.50;8.00;;;;;24.05;39.73;101115.72;4959152;28;45411;-55
2022/06/15 08:09:29;;;;;;;;;10.75;9.25;;;;;24.06;39.41;101120.94;4959025;28;46586;-49
2022/06/15 08:12:18;;;;;;;;;9.75;8.75;;;;;24.06;39.26;101112.13;4959292;28;45397;-53
2022/06/15 08:14:49;;;;;;;;;10.25;8.00;;;;;24.08;39.04;101116.41;4958918;28;45318;-49
2022/06/15 08:17:54;;;;;;;;;13.00;9.25;;;;;24.11;39.51;101117.13;4957826;28;45343;-57
2022/06/15 08:20:28;;;;;;;;;10.25;8.50;;;;;24.11;39.08;101112.69;4958730;28;46477;-55
2022/06/15 08:22:57;;;;;;;;;10.50;8.00;;;;;24.15;39.47;101113.34;4958816;28;45451;-57
2022/06/15 08:25:28;;;;;;;;;9.25;8.00;;;;;24.14;39.38;101111.63;4958902;28;45325;-55
2022/06/15 08:27:55;;;;;;;;;8.50;7.75;;;;;24.17;38.99;101111.44;4958542;28;45513;-54
2022/06/15 08:30:22;;;;;;;;;9.00;8.75;;;;;24.18;39.08;101118.44;4956000;28;45542;-55
2022/06/15 08:32:48;;;;;;;;;11.25;8.00;;;;;24.18;39.01;101107.84;4957350;28;45216;-59
2022/06/15 08:35:14;;;;;;;;;14.00;8.00;;;;;24.22;38.94;101109.31;4958529;28;45511;-56
2022/06/15 08:37:39;;;;;;;;;8.25;8.25;;;;;24.22;39.25;101107.53;4958579;28;45336;-58
2022/06/15 08:40:06;;;;;;;;;10.00;8.00;;;;;24.26;39.00;101110.81;4957678;28;47085;-57
2022/06/15 08:42:32;;;;;;;;;8.00;7.75;;;;;24.28;39.29;101108.91;4956952;28;45458;-55
2022/06/15 08:45:06;;;;;;;;;7.00;7.00;;;;;24.31;38.86;101113.16;4958643;28;45383;-58
2022/06/15 08:47:50;;;;;;;;;8.25;8.00;;;;;24.33;39.02;101111.25;4958490;28;45553;-55
2022/06/15 08:50:33;;;;;;;;;8.50;8.25;;;;;24.34;39.14;101105.84;4957590;28;46654;-59
2022/06/15 08:53:13;;;;;;;;;9.00;9.00;;;;;24.35;39.34;101104.91;4957099;28;45997;-58
2022/06/15 08:55:59;;;;;;;;;8.00;8.00;;;;;24.36;38.73;101103.94;4958126;28;45567;-59
2022/06/15 08:58:42;;;;;;;;;7.25;7.25;;;;;24.39;38.68;101100.22;4958146;28;45187;-56
2022/06/15 09:01:26;;;;;;;;;7.75;7.75;;;;;24.41;38.78;101108.09;4957521;28;47087;-54
2022/06/15 09:04:01;;;;;;;;;5.50;5.50;;;;;24.43;39.08;101108.81;4957617;28;45890;-53
2022/06/15 09:06:54;;;;;;;;;6.75;6.75;;;;;24.43;38.68;101100.88;4958173;28;45317;-53
2022/06/15 09:09:24;;;;;;;;;6.00;6.00;;;;;24.44;38.92;101102.56;4956576;28;45440;-53
2022/06/15 09:15:23;;;;;;;;;8.50;7.75;;;;;24.46;38.50;101104.19;4957739;28;45486;-56
2022/06/15 09:17:52;;;;;;;;;8.25;8.00;;;;;24.46;38.64;101104.19;4957527;28;45412;-52
2022/06/15 09:20:25;;;;;;;;;9.50;8.00;;;;;24.47;39.07;101097.94;4957666;28;45586;-56
2022/06/15 09:23:00;;;;;;;;;7.75;7.75;;;;;24.48;38.70;101102.25;4957561;28;46574;-53
2022/06/15 09:25:35;;;;;;;;;8.25;7.00;;;;;24.50;38.33;101104.81;4957688;28;45406;-52
2022/06/15 09:28:32;;;;;;;;;9.75;8.00;;;;;24.51;38.45;101109.16;4957663;28;45366;-47
2022/06/15 09:31:05;;;;;;;;;8.50;7.50;;;;;24.51;38.32;101111.81;4957099;28;45297;-48
2022/06/15 09:33:55;;;;;;;;;8.00;7.00;;;;;24.52;38.88;101110.88;4957620;28;45231;-47
2022/06/15 09:36:26;;;;;;;;;6.75;6.75;;;;;24.51;38.98;101107.34;4957255;28;45899;-47
2022/06/15 09:38:51;;;;;;;;;9.00;7.50;;;;;24.51;38.92;101112.66;4956107;28;45437;-47
2022/06/15 09:41:27;;;;;;;;;9.75;8.75;;;;;24.52;38.80;101108.22;4957799;28;45539;-48
2022/06/15 09:43:55;;;;;;;;;8.75;8.75;;;;;24.51;38.58;101104.69;4957229;28;45603;-48
2022/06/15 09:46:45;;;;;;;;;6.00;5.25;;;;;24.50;38.43;101099.50;4957321;28;45467;-48
2022/06/15 09:49:21;;;;;;;;;8.00;8.00;;;;;24.50;38.83;101096.88;4957401;28;45355;-48
2022/06/15 09:51:55;;;;;;;;;9.25;7.25;;;;;24.50;38.55;101097.69;4956117;28;45250;-47
2022/06/15 09:54:47;;;;;;;;;9.00;9.00;;;;;24.51;38.49;101087.97;4957038;28;46585;-54
2022/06/15 09:57:12;;;;;;;;;8.50;8.50;;;;;24.52;38.51;101092.31;4956047;28;45390;-53
2022/06/15 09:59:39;;;;;;;;;7.50;7.25;;;;;24.54;38.40;101093.03;4956580;28;45529;-51
2022/06/15 10:02:13;;;;;;;;;8.50;8.50;;;;;24.56;38.98;101091.13;4957744;28;45833;-53
2022/06/15 10:04:38;;;;;;;;;9.00;9.00;;;;;24.56;38.40;101093.78;4958408;28;46262;-50
2022/06/15 10:07:13;;;;;;;;;8.00;8.00;;;;;24.56;38.59;101093.78;4959717;28;45354;-50
2022/06/15 10:09:48;;;;;;;;;12.25;9.00;;;;;24.57;38.49;101095.47;4960165;28;45370;-51
2022/06/15 10:15:21;;;;;;;;;7.50;7.00;;;;;24.57;38.70;101095.47;4960407;28;45284;-50
2022/06/15 10:17:51;;;;;;;;;9.00;7.75;;;;;24.56;38.39;101091.13;4959656;28;45344;-49
2022/06/15 10:20:21;;;;;;;;;11.25;9.25;;;;;24.57;39.00;101098.13;4960650;28;45405;-53
2022/06/15 10:22:53;;;;;;;;;12.00;9.00;;;;;24.57;38.58;101097.28;4960791;28;45326;-52
2022/06/15 10:25:19;;;;;;;;;9.25;8.75;;;;;24.58;38.50;101107.78;4960351;28;45482;-53
2022/06/15 10:27:45;;;;;;;;;9.00;9.00;;;;;24.57;38.93;101103.44;4960268;28;45969;-49
2022/06/15 10:30:10;;;;;;;;;10.75;8.75;;;;;24.57;38.32;101107.91;4960450;28;45368;-52
2022/06/15 10:32:39;;;;;;;;;9.67;8.33;;;;;24.57;38.30;101103.44;4961149;28;45519;-51
2022/06/15 10:35:15;;;;;;;;;9.50;8.00;;;;;24.56;38.22;101101.72;4960389;28;46819;-51
2022/06/15 10:37:47;;;;;;;;;9.00;9.00;;;;;24.56;38.16;101099.09;4960190;28;45365;-51
2022/06/15 10:40:31;;;;;;;;;10.00;7.75;;;;;24.56;38.13;101101.72;4960285;28;45395;-49
2022/06/15 10:43:23;;;;;;;;;9.00;8.25;;;;;24.56;38.13;101093.78;4960450;28;45635;-49
2022/06/15 10:45:54;;;;;;;;;11.75;9.25;;;;;24.57;38.47;101103.44;4959926;28;46533;-52
2022/06/15 10:48:34;;;;;;;;;9.00;8.00;;;;;24.58;38.47;101099.00;4960035;28;45461;-52
2022/06/15 10:51:05;;;;;;;;;8.00;7.75;;;;;24.56;38.75;101109.69;4960138;28;45450;-52
2022/06/15 10:53:50;;;;;;;;;9.00;8.00;;;;;24.56;38.21;101099.09;4960484;28;45432;-50
2022/06/15 11:02:39;;;;;;;;;10.00;8.50;;;;;24.56;38.48;101096.44;4960030;28;45386;-52
2022/06/15 11:05:14;;;;;;;;;10.75;9.75;;;;;24.56;38.81;101096.44;4960464;28;45405;-48
2022/06/15 11:07:43;;;;;;;;;9.75;9.00;;;;;24.57;38.17;101095.47;4959873;28;46641;-49
2022/06/15 11:10:31;;;;;;;;;10.00;10.00;;;;;24.58;38.54;101104.28;4959677;28;45393;-52
2022/06/15 11:13:34;;;;;;;;;10.75;9.50;;;;;24.58;38.16;101104.28;4956470;28;45452;-49
2022/06/15 11:19:11;;;;;;;;;10.00;10.00;;;;;24.56;38.10;101091.13;4959462;28;45819;-51
2022/06/15 11:21:45;;;;;;;;;8.00;6.25;;;;;24.58;38.28;101088.41;4959884;28;45630;-50
2022/06/15 11:24:38;;;;;;;;;9.75;9.25;;;;;24.58;38.64;101091.88;4958326;28;45279;-53
2022/06/15 11:27:29;;;;;;;;;10.50;9.25;;;;;24.59;38.47;101096.22;4960233;28;45382;-51
2022/06/15 11:30:03;;;;;;;;;11.75;9.00;;;;;24.59;37.91;101093.56;4959072;28;45678;-52
2022/06/15 11:32:47;;;;;;;;;10.25;7.25;;;;;24.60;38.13;101083.81;4958133;28;45877;-52
2022/06/15 11:35:12;;;;;;;;;10.00;8.50;;;;;24.60;38.58;101082.03;4959583;28;45279;-53
2022/06/15 11:38:10;;;;;;;;;9.67;9.67;;;;;24.59;38.28;101082.97;4960060;28;45168;-52
2022/06/15 11:40:55;;;;;;;;;11.50;10.00;;;;;24.61;38.57;101085.50;4959168;28;46304;-53
2022/06/15 11:43:34;;;;;;;;;9.00;9.00;;;;;24.61;37.87;101091.69;4959443;28;45392;-52
2022/06/15 11:46:18;;;;;;;;;11.00;8.75;;;;;24.61;38.13;101086.38;4959622;28;45211;-51
2022/06/15 11:49:13;;;;;;;;;8.50;7.50;;;;;24.61;37.93;101088.16;4959568;28;45389;-52
2022/06/15 11:51:47;;;;;;;;;11.00;9.75;;;;;24.61;38.25;101075.78;4959535;28;46384;-50
2022/06/15 11:54:31;;;;;;;;;10.50;10.50;;;;;24.62;38.44;101089.84;4958843;28;47612;-51
2022/06/15 11:57:18;;;;;;;;;8.25;8.25;;;;;24.61;37.93;101089.03;4959314;28;45310;-52
2022/06/15 12:00:22;;;;;;;;;9.50;8.50;;;;;24.62;37.94;101088.06;4959202;28;45400;-52